Terminal Aerodrome Forecast
Issued by NWS Sterling, VA

Current Version | Previous Version | Graphics & Text | Print | Product List | Glossary On
Versions: 1 2 3 4 5 6 7 8 9 10 11 12 13 14 15 16 17 18 19 20 21 22 23 24 25 26 27
000
FTUS41 KLWX 231130
TAFIAD
TAF
KIAD 231130Z 2312/2418 31006KT P6SM FEW080
     FM232100 30006KT P6SM BKN050
     FM240200 31004KT P6SM SCT060
     FM241200 01004KT P6SM FEW200
     FM241700 26004KT P6SM FEW060=

USA.gov is the U.S. government's official web portal to all federal, state and local government web resources and services.